Time;durP1;ratioP1;P1;durP2;ratioP2;P2;SDS_P1;SDS_P2;PMS_P1;PMS_P2;Temp;Humidity;BMP_temperature;BMP_pressure;BME280_temperature;BME280_humidity;BME280_pressure;Samples;Min_cycle;Max_cycle;Signal;HPM_P1;HPM_P2
2022/07/21 00:01:33;;;;;;;19.30;15.20;;;;;;;19.21;79.13;101718.44;5085836;28;20049;-59
2022/07/21 00:03:59;;;;;;;18.35;15.07;;;;;;;19.23;79.77;101716.38;5083156;28;20039;-58
2022/07/21 00:06:24;;;;;;;18.08;15.38;;;;;;;19.25;80.01;101719.69;5086964;28;20024;-58
2022/07/21 00:08:49;;;;;;;16.90;15.20;;;;;;;19.25;79.94;101719.69;5082782;28;20104;-58
2022/07/21 00:11:15;;;;;;;20.10;16.00;;;;;;;19.25;79.97;101717.00;5082582;28;20039;-57
2022/07/21 00:13:41;;;;;;;19.38;16.08;;;;;;;19.28;80.24;101708.50;5085690;28;20031;-59
2022/07/21 00:16:07;;;;;;;20.98;16.30;;;;;;;19.38;80.15;101700.03;5082534;28;20020;-58
2022/07/21 00:18:33;;;;;;;21.45;16.70;;;;;;;19.41;80.09;101700.44;5085917;28;20450;-56
2022/07/21 00:20:59;;;;;;;20.95;16.65;;;;;;;19.40;80.31;101714.94;5094548;28;20012;-59
2022/07/21 00:23:25;;;;;;;18.65;16.60;;;;;;;19.37;80.22;101712.66;5084206;28;20111;-59
2022/07/21 00:25:51;;;;;;;20.73;16.83;;;;;;;19.34;80.57;101723.81;5085571;28;20165;-58
2022/07/21 00:28:16;;;;;;;21.05;16.70;;;;;;;19.32;80.36;101715.13;5082998;28;20081;-58
2022/07/21 00:30:42;;;;;;;18.75;16.65;;;;;;;19.35;80.60;101720.09;5082990;28;20105;-57
2022/07/21 00:33:07;;;;;;;19.45;16.25;;;;;;;19.37;80.81;101717.19;5085018;28;20020;-58
2022/07/21 00:35:33;;;;;;;18.35;16.27;;;;;;;19.34;80.36;101720.31;5087284;28;20032;-59
2022/07/21 00:37:58;;;;;;;19.00;16.42;;;;;;;19.36;80.84;101721.75;5084267;28;20016;-59
2022/07/21 00:40:24;;;;;;;19.92;16.70;;;;;;;19.41;80.58;101722.00;5084362;28;20119;-59
2022/07/21 00:42:49;;;;;;;21.48;16.92;;;;;;;19.46;80.67;101722.19;5084247;28;20034;-59
2022/07/21 00:45:15;;;;;;;19.08;16.17;;;;;;;19.41;80.40;101718.47;5087807;28;20115;-57
2022/07/21 00:47:41;;;;;;;19.58;16.38;;;;;;;19.35;80.32;101719.28;5084938;28;20103;-58
2022/07/21 00:50:11;;;;;;;20.45;16.17;;;;;;;19.24;80.53;101718.03;5087460;28;20031;-59
2022/07/21 00:52:37;;;;;;;18.95;16.40;;;;;;;19.19;80.91;101709.75;5077882;28;20028;-58
2022/07/21 00:55:04;;;;;;;19.40;16.10;;;;;;;19.16;81.04;101708.28;5082857;28;20509;-59
2022/07/21 00:57:30;;;;;;;17.80;15.75;;;;;;;19.19;81.29;101705.19;5086898;28;20042;-58
2022/07/21 00:59:56;;;;;;;19.73;16.38;;;;;;;19.16;81.03;101705.59;5085966;28;20028;-59
2022/07/21 01:02:21;;;;;;;18.05;15.68;;;;;;;19.08;80.95;101697.75;5082413;28;20024;-59
2022/07/21 01:04:46;;;;;;;19.38;15.30;;;;;;;19.02;81.14;101697.72;5082441;28;20016;-57
2022/07/21 01:07:13;;;;;;;17.40;15.30;;;;;;;18.97;81.51;101700.19;5086636;28;20506;-58
2022/07/21 01:09:38;;;;;;;19.85;16.38;;;;;;;18.93;81.78;101696.25;5082896;28;20039;-58
2022/07/21 01:12:04;;;;;;;19.45;16.02;;;;;;;18.86;82.21;101702.47;5084793;28;21483;-58
2022/07/21 01:14:30;;;;;;;17.77;15.88;;;;;;;18.80;82.09;101689.81;5087325;28;20035;-58
2022/07/21 01:16:55;;;;;;;18.63;15.50;;;;;;;18.73;82.24;101680.06;5085718;28;20107;-58
2022/07/21 01:19:21;;;;;;;19.48;15.98;;;;;;;18.71;82.59;101672.19;5081587;28;20028;-58
2022/07/21 01:21:48;;;;;;;19.35;15.57;;;;;;;18.71;82.38;101682.94;5079649;28;20055;-58
2022/07/21 01:24:14;;;;;;;17.55;15.35;;;;;;;18.69;82.54;101689.56;5082907;28;20038;-57
2022/07/21 01:26:43;;;;;;;20.48;15.40;;;;;;;18.71;82.80;101685.66;5088865;28;20110;-56
2022/07/21 01:29:10;;;;;;;21.00;15.65;;;;;;;18.74;82.75;101685.22;5084106;28;20473;-56
2022/07/21 01:31:36;;;;;;;18.05;14.95;;;;;;;18.71;82.63;101685.66;5085977;28;20103;-59
2022/07/21 01:34:02;;;;;;;19.70;14.90;;;;;;;18.68;82.30;101688.75;5082108;28;20701;-57
2022/07/21 01:36:28;;;;;;;17.73;14.73;;;;;;;18.65;82.82;101675.69;5093146;28;20111;-56
2022/07/21 01:41:37;;;;;;;16.15;14.45;;;;;;;18.60;82.88;101670.06;5082000;28;20055;-57
2022/07/21 01:44:08;;;;;;;16.65;14.52;;;;;;;18.53;82.96;101672.75;5082260;28;20024;-57
2022/07/21 01:46:37;;;;;;;16.92;14.60;;;;;;;18.57;83.12;101692.00;5089080;28;20485;-59
2022/07/21 01:49:04;;;;;;;17.33;14.88;;;;;;;18.57;82.84;101679.38;5087122;28;20020;-56
2022/07/21 01:51:29;;;;;;;18.63;15.02;;;;;;;18.58;82.75;101672.97;5085351;28;20119;-56
2022/07/21 01:53:55;;;;;;;16.45;14.75;;;;;;;18.59;83.31;101681.88;5086114;28;20042;-58
2022/07/21 01:56:22;;;;;;;17.88;14.85;;;;;;;18.54;83.51;101684.34;5085730;28;20099;-58
2022/07/21 01:58:49;;;;;;;17.42;14.80;;;;;;;18.56;83.53;101685.78;5082046;28;20526;-58
2022/07/21 02:01:16;;;;;;;21.00;14.57;;;;;;;18.54;83.35;101673.59;5078206;28;20457;-58
2022/07/21 02:03:43;;;;;;;17.63;15.07;;;;;;;18.60;83.61;101683.53;5085527;28;20021;-56
2022/07/21 02:06:08;;;;;;;17.13;15.32;;;;;;;18.55;83.48;101691.38;5083131;28;20059;-57
2022/07/21 02:08:34;;;;;;;17.02;14.80;;;;;;;18.51;83.19;101690.97;5080778;28;20052;-58
2022/07/21 02:10:59;;;;;;;15.75;14.05;;;;;;;18.50;83.41;101688.44;5084813;28;20686;-57
2022/07/21 02:13:25;;;;;;;16.23;13.82;;;;;;;18.56;83.40;101696.56;5086764;28;20493;-57
2022/07/21 02:15:51;;;;;;;18.48;14.57;;;;;;;18.56;83.30;101695.72;5088064;28;20027;-58
2022/07/21 02:18:17;;;;;;;19.33;14.95;;;;;;;18.52;83.70;101689.94;5098949;28;20050;-57
2022/07/21 02:20:44;;;;;;;17.63;14.63;;;;;;;18.49;83.57;101684.09;5087747;28;20111;-57
2022/07/21 02:23:10;;;;;;;17.65;14.55;;;;;;;18.45;83.93;101686.34;5083184;28;20027;-58
2022/07/21 02:25:36;;;;;;;18.55;14.98;;;;;;;18.40;83.97;101677.25;5086798;28;20036;-57
2022/07/21 02:28:01;;;;;;;16.45;14.75;;;;;;;18.38;84.01;101676.63;5091565;28;20031;-59
2022/07/21 02:30:27;;;;;;;17.35;15.38;;;;;;;18.38;84.15;101672.06;5087055;28;20650;-58
2022/07/21 02:32:53;;;;;;;20.05;15.40;;;;;;;18.38;84.59;101673.94;5084608;28;20031;-58
2022/07/21 02:35:18;;;;;;;16.50;14.68;;;;;;;18.35;84.55;101674.34;5087133;28;20392;-59
2022/07/21 02:37:44;;;;;;;17.90;14.88;;;;;;;18.30;84.81;101674.94;5089781;28;20476;-57
2022/07/21 02:40:09;;;;;;;19.65;15.38;;;;;;;18.31;84.66;101684.66;5087973;28;20079;-57
2022/07/21 02:42:35;;;;;;;18.08;15.02;;;;;;;18.31;84.84;101676.59;5087551;28;20050;-57
2022/07/21 02:45:00;;;;;;;19.42;15.95;;;;;;;18.32;84.93;101670.19;5088436;28;20232;-57
2022/07/21 02:47:25;;;;;;;19.73;15.15;;;;;;;18.39;85.13;101664.81;5087984;28;20496;-58
2022/07/21 02:49:50;;;;;;;18.23;15.18;;;;;;;18.38;84.98;101668.56;5085699;28;20093;-57
2022/07/21 02:52:16;;;;;;;19.42;15.57;;;;;;;18.36;85.33;101668.75;5088169;28;20039;-58
2022/07/21 02:54:41;;;;;;;19.35;15.93;;;;;;;18.34;85.18;101665.44;5087636;28;20031;-57
2022/07/21 02:57:06;;;;;;;20.40;16.13;;;;;;;18.35;85.27;101666.25;5080589;28;20493;-57
2022/07/21 02:59:32;;;;;;;20.00;15.88;;;;;;;18.30;85.50;101656.13;5080010;28;20412;-57
2022/07/21 03:01:57;;;;;;;21.60;16.17;;;;;;;18.23;85.48;101650.72;5084483;28;20050;-59
2022/07/21 03:04:22;;;;;;;19.33;16.70;;;;;;;18.18;85.95;101653.16;5086381;28;20100;-57
2022/07/21 03:06:48;;;;;;;20.25;16.38;;;;;;;18.17;85.63;101645.28;5088351;28;20530;-56
2022/07/21 03:09:13;;;;;;;21.45;17.13;;;;;;;18.16;85.85;101649.84;5092260;28;20385;-57
2022/07/21 03:11:38;;;;;;;22.90;16.30;;;;;;;18.17;86.07;101648.00;5080057;28;20481;-58
2022/07/21 03:14:03;;;;;;;23.13;17.25;;;;;;;18.12;86.21;101648.59;5084752;28;20027;-56
2022/07/21 03:16:29;;;;;;;22.75;17.27;;;;;;;18.13;86.09;101654.78;5088478;28;20032;-56
2022/07/21 03:18:54;;;;;;;20.90;16.90;;;;;;;18.12;86.46;101653.13;5089523;28;20587;-56
2022/07/21 03:21:19;;;;;;;24.48;18.40;;;;;;;18.11;86.22;101657.69;5088224;28;20031;-57
2022/07/21 03:23:47;;;;;;;23.02;18.05;;;;;;;18.12;86.16;101659.34;5083432;28;20047;-58
2022/07/21 03:26:14;;;;;;;25.48;17.83;;;;;;;18.14;86.35;101664.53;5084176;28;20031;-55
2022/07/21 03:28:41;;;;;;;22.90;18.08;;;;;;;18.15;86.02;101664.31;5087689;28;20024;-56
2022/07/21 03:31:06;;;;;;;27.45;18.23;;;;;;;18.16;86.28;101657.09;5088647;28;20115;-56
2022/07/21 03:33:32;;;;;;;22.48;17.88;;;;;;;18.16;86.05;101657.91;5085676;28;20552;-57
2022/07/21 03:35:59;;;;;;;24.88;19.00;;;;;;;18.16;86.26;101660.59;5087512;28;20028;-58
2022/07/21 03:38:26;;;;;;;27.20;18.65;;;;;;;18.14;86.58;101662.66;5086115;28;20024;-57
2022/07/21 03:40:51;;;;;;;22.92;18.48;;;;;;;18.13;86.40;101661.00;5080504;28;20498;-56
2022/07/21 03:43:17;;;;;;;25.95;18.48;;;;;;;18.14;86.42;101659.13;5081690;28;20020;-58
2022/07/21 03:45:42;;;;;;;26.80;19.70;;;;;;;18.11;86.79;101662.22;5095005;28;20042;-58
2022/07/21 03:48:09;;;;;;;24.92;19.10;;;;;;;18.10;86.41;101672.16;5086760;28;20024;-59
2022/07/21 03:50:36;;;;;;;23.85;18.88;;;;;;;18.10;86.99;101677.53;5087816;28;20508;-58
2022/07/21 03:53:02;;;;;;;24.42;18.90;;;;;;;18.08;87.03;101676.91;5080767;28;20076;-57
2022/07/21 03:55:28;;;;;;;23.80;19.33;;;;;;;18.07;86.97;101675.25;5087627;28;20024;-58
2022/07/21 03:57:56;;;;;;;25.35;18.73;;;;;;;18.13;86.92;101677.13;5088117;28;20051;-57
2022/07/21 04:00:23;;;;;;;24.63;18.92;;;;;;;18.12;86.56;101675.47;5085595;28;20048;-56
2022/07/21 04:02:48;;;;;;;22.75;17.83;;;;;;;18.12;86.73;101680.84;5082426;28;20385;-58
2022/07/21 04:05:15;;;;;;;23.90;17.05;;;;;;;18.11;86.31;101673.81;5085135;28;20031;-58
2022/07/21 04:07:42;;;;;;;24.08;17.77;;;;;;;18.10;86.70;101682.09;5081900;28;20106;-59
2022/07/21 04:10:09;;;;;;;24.55;17.60;;;;;;;18.12;86.34;101680.03;5088654;28;20153;-57
2022/07/21 04:12:34;;;;;;;22.83;17.50;;;;;;;18.09;86.56;101678.56;5086286;28;20526;-57
2022/07/21 04:14:59;;;;;;;23.40;17.70;;;;;;;18.09;86.55;101675.06;5092345;28;20459;-58
2022/07/21 04:17:25;;;;;;;24.25;17.92;;;;;;;18.08;86.59;101674.22;5084837;28;20023;-57
2022/07/21 04:19:50;;;;;;;23.63;18.50;;;;;;;18.11;86.60;101673.81;5085277;28;20012;-58
2022/07/21 04:22:15;;;;;;;26.73;18.17;;;;;;;18.09;86.66;101672.34;5085633;28;20020;-58
2022/07/21 04:24:42;;;;;;;29.98;18.85;;;;;;;18.05;86.95;101671.09;5086127;28;20028;-58
2022/07/21 04:27:07;;;;;;;24.48;18.75;;;;;;;18.06;86.78;101662.84;5084408;28;20503;-56
2022/07/21 04:29:32;;;;;;;30.15;19.63;;;;;;;18.17;87.40;101664.13;5088574;28;20101;-56
2022/07/21 04:31:58;;;;;;;28.00;19.65;;;;;;;18.20;87.33;101671.78;5081978;28;20047;-56
2022/07/21 04:34:24;;;;;;;27.15;18.67;;;;;;;18.18;87.10;101671.16;5085191;28;20028;-57
2022/07/21 04:36:49;;;;;;;23.90;17.63;;;;;;;18.15;87.17;101674.25;5085078;28;20511;-58
2022/07/21 04:39:14;;;;;;;21.88;17.42;;;;;;;18.09;87.37;101675.06;5088740;28;20024;-56
2022/07/21 04:41:40;;;;;;;26.80;18.52;;;;;;;18.08;87.18;101665.31;5087704;28;20504;-57
2022/07/21 04:44:05;;;;;;;24.17;17.73;;;;;;;18.06;87.46;101670.91;5085335;28;20024;-58
2022/07/21 04:46:30;;;;;;;21.30;17.35;;;;;;;18.02;87.59;101675.03;5081612;28;20032;-58
2022/07/21 04:48:55;;;;;;;22.52;17.55;;;;;;;18.01;87.73;101672.53;5076230;28;20028;-56
2022/07/21 04:51:21;;;;;;;27.27;17.17;;;;;;;17.98;87.92;101676.44;5084280;28;20112;-58
2022/07/21 04:53:46;;;;;;;26.45;17.98;;;;;;;17.99;87.66;101677.28;5082765;28;20024;-56
2022/07/21 04:56:11;;;;;;;23.58;17.50;;;;;;;17.98;88.02;101684.50;5085799;28;20115;-57
2022/07/21 04:58:36;;;;;;;26.83;17.70;;;;;;;17.97;87.90;101682.84;5078840;28;20791;-57
2022/07/21 05:01:02;;;;;;;21.92;16.30;;;;;;;17.98;88.18;101684.50;5083791;28;20089;-58
2022/07/21 05:03:27;;;;;;;22.65;17.15;;;;;;;17.99;88.84;101677.28;5084362;28;20465;-55
2022/07/21 05:05:52;;;;;;;22.75;16.98;;;;;;;17.95;88.52;101687.59;5082277;28;20032;-56
2022/07/21 05:08:17;;;;;;;24.65;16.90;;;;;;;17.99;88.65;101690.72;5087936;28;20090;-58
2022/07/21 05:10:43;;;;;;;21.67;15.82;;;;;;;17.95;88.57;101682.22;5079116;28;20054;-58
2022/07/21 05:13:08;;;;;;;23.58;15.73;;;;;;;17.95;88.70;101680.38;5082112;28;20040;-57
2022/07/21 05:15:33;;;;;;;19.60;15.60;;;;;;;17.96;88.62;101681.19;5081395;28;20024;-57
2022/07/21 05:17:59;;;;;;;22.30;16.25;;;;;;;17.97;88.27;101680.16;5086044;28;20034;-59
2022/07/21 05:20:24;;;;;;;18.67;15.65;;;;;;;17.99;88.28;101677.28;5087317;28;20028;-57
2022/07/21 05:22:49;;;;;;;22.23;16.10;;;;;;;17.97;88.62;101671.28;5083740;28;20022;-59
2022/07/21 05:25:14;;;;;;;21.77;15.90;;;;;;;17.99;88.79;101675.44;5086393;28;20538;-58
2022/07/21 05:27:40;;;;;;;19.85;14.98;;;;;;;18.03;88.40;101665.09;5080595;28;20102;-59
2022/07/21 05:30:06;;;;;;;22.83;15.55;;;;;;;18.01;88.49;101672.53;5085303;28;20039;-58
2022/07/21 05:32:31;;;;;;;21.55;15.30;;;;;;;18.08;88.49;101676.06;5085937;28;20634;-59
2022/07/21 05:34:57;;;;;;;24.98;15.27;;;;;;;18.05;88.19;101673.78;5086932;28;20016;-58
2022/07/21 05:37:22;;;;;;;19.17;13.98;;;;;;;18.08;88.16;101668.84;5091086;28;20069;-57
2022/07/21 05:39:47;;;;;;;25.50;14.57;;;;;;;18.10;87.65;101671.31;5082124;28;20055;-58
2022/07/21 05:42:12;;;;;;;18.90;14.15;;;;;;;18.09;87.36;101670.50;5087451;28;20545;-57
2022/07/21 05:44:38;;;;;;;18.95;13.90;;;;;;;18.14;87.50;101670.72;5085547;28;20119;-57
2022/07/21 05:47:03;;;;;;;20.73;14.00;;;;;;;18.12;87.46;101670.09;5083346;28;20024;-58
2022/07/21 05:49:28;;;;;;;20.55;14.00;;;;;;;18.09;86.71;101675.06;5089080;28;20028;-59
2022/07/21 05:51:54;;;;;;;22.77;15.45;;;;;;;18.05;86.58;101669.25;5087214;28;20020;-58
2022/07/21 05:54:19;;;;;;;20.33;14.85;;;;;;;18.01;86.46;101673.38;5087032;28;20028;-57
2022/07/21 05:56:44;;;;;;;21.95;14.77;;;;;;;18.03;86.61;101667.78;5090149;28;20020;-58
2022/07/21 05:59:10;;;;;;;21.10;15.15;;;;;;;18.05;86.67;101661.19;5089972;28;20020;-57
2022/07/21 06:01:35;;;;;;;22.23;14.77;;;;;;;18.05;86.53;101655.81;5087399;28;20028;-59
2022/07/21 06:04:01;;;;;;;19.83;14.48;;;;;;;18.07;86.82;101659.13;5086654;28;20028;-58
2022/07/21 06:06:26;;;;;;;24.25;16.10;;;;;;;18.13;86.63;101668.25;5091322;28;20073;-59
2022/07/21 06:08:51;;;;;;;27.20;15.40;;;;;;;18.18;86.82;101661.22;5084801;28;20024;-57
2022/07/21 06:11:19;;;;;;;26.00;15.45;;;;;;;18.20;86.30;101661.84;5089239;28;20020;-56
2022/07/21 06:13:45;;;;;;;25.58;15.93;;;;;;;18.23;86.41;101655.28;5091734;28;20468;-57
2022/07/21 06:16:11;;;;;;;24.85;16.60;;;;;;;18.27;85.80;101653.84;5090134;28;20073;-58
2022/07/21 06:18:36;;;;;;;28.48;16.65;;;;;;;18.35;85.89;101663.56;5101323;28;20396;-58
2022/07/21 06:21:02;;;;;;;26.70;17.58;;;;;;;18.37;85.94;101651.59;5097610;28;20028;-59
2022/07/21 06:23:28;;;;;;;25.13;16.52;;;;;;;18.46;86.10;101669.19;5090600;28;20035;-57
2022/07/21 06:25:54;;;;;;;26.10;16.50;;;;;;;18.51;85.65;101661.38;5096356;28;20020;-57
2022/07/21 06:28:19;;;;;;;27.13;17.00;;;;;;;18.61;86.08;101660.97;5090366;28;20016;-57
2022/07/21 06:30:45;;;;;;;27.38;15.90;;;;;;;18.69;85.52;101657.28;5094922;28;20020;-56
2022/07/21 06:33:10;;;;;;;24.45;17.77;;;;;;;18.74;85.65;101658.31;5084798;28;20095;-57
2022/07/21 06:35:36;;;;;;;25.35;17.05;;;;;;;18.85;85.61;101662.28;5091654;28;20024;-55
2022/07/21 06:38:02;;;;;;;26.83;18.10;;;;;;;18.85;84.92;101660.44;5094985;28;20024;-56
2022/07/21 06:40:27;;;;;;;28.92;18.23;;;;;;;18.95;84.89;101661.88;5090361;28;20027;-56
2022/07/21 06:42:53;;;;;;;27.73;18.10;;;;;;;19.01;84.66;101661.06;5091222;28;20028;-55
2022/07/21 06:45:18;;;;;;;28.58;19.25;;;;;;;19.06;84.27;101664.78;5089670;28;20107;-57
2022/07/21 06:47:44;;;;;;;30.60;18.77;;;;;;;19.07;83.70;101666.44;5090074;28;20622;-58
2022/07/21 06:50:10;;;;;;;29.92;18.27;;;;;;;19.09;83.43;101675.16;5092735;28;20493;-57
2022/07/21 06:52:36;;;;;;;30.40;20.13;;;;;;;19.13;83.61;101676.41;5095521;28;20026;-56
2022/07/21 06:55:02;;;;;;;31.15;19.45;;;;;;;19.26;83.81;101677.44;5097759;28;20027;-55
2022/07/21 06:57:28;;;;;;;29.38;20.27;;;;;;;19.30;83.67;101684.06;5085745;28;20397;-58
2022/07/21 06:59:53;;;;;;;30.52;20.20;;;;;;;19.26;83.13;101678.25;5086296;28;20496;-59
2022/07/21 07:02:18;;;;;;;29.25;19.55;;;;;;;19.31;83.23;101689.22;5087841;28;20032;-58
2022/07/21 07:04:44;;;;;;;31.05;19.88;;;;;;;19.31;83.08;101688.41;5100426;28;20051;-58
2022/07/21 07:07:10;;;;;;;31.67;20.25;;;;;;;19.29;82.78;101691.31;5092052;28;20106;-59
2022/07/21 07:09:35;;;;;;;33.63;20.02;;;;;;;19.31;83.04;101688.41;5090700;28;20409;-58
2022/07/21 07:12:03;;;;;;;31.02;21.33;;;;;;;19.22;82.60;101679.72;5086056;28;20016;-58
2022/07/21 07:14:30;;;;;;;35.92;21.80;;;;;;;19.30;83.26;101682.19;5081228;28;20504;-57
2022/07/21 07:16:55;;;;;;;31.65;21.83;;;;;;;19.33;83.01;101687.16;5091386;28;20518;-59
2022/07/21 07:19:21;;;;;;;32.03;21.90;;;;;;;19.36;83.26;101689.44;5095947;28;20031;-58
2022/07/21 07:21:46;;;;;;;33.65;22.05;;;;;;;19.34;83.13;101690.69;5095070;28;20017;-59
2022/07/21 07:24:11;;;;;;;33.67;22.08;;;;;;;19.36;83.19;101691.28;5093996;28;20051;-58
2022/07/21 07:26:37;;;;;;;35.13;22.70;;;;;;;19.31;83.06;101697.31;5093899;28;21938;-58
2022/07/21 07:29:02;;;;;;;31.45;21.58;;;;;;;19.23;82.70;101692.13;5089009;28;20488;-59
2022/07/21 07:31:28;;;;;;;32.50;21.73;;;;;;;19.19;83.07;101698.97;5095288;28;20016;-58
2022/07/21 07:33:56;;;;;;;33.90;22.00;;;;;;;19.13;83.11;101689.03;5090588;28;20016;-58
2022/07/21 07:36:22;;;;;;;33.13;22.60;;;;;;;19.07;83.10;101687.97;5097984;28;20032;-58
2022/07/21 07:38:48;;;;;;;35.28;23.15;;;;;;;19.03;83.25;101697.50;5088705;28;20034;-58
2022/07/21 07:41:13;;;;;;;37.35;23.38;;;;;;;18.92;83.60;101699.97;5085102;28;20020;-58
2022/07/21 07:43:38;;;;;;;36.60;23.85;;;;;;;18.84;83.75;101685.69;5086265;28;20028;-59
2022/07/21 07:46:05;;;;;;;39.33;24.23;;;;;;;18.84;83.96;101687.56;5086137;28;20046;-64
2022/07/21 07:48:31;;;;;;;40.28;24.10;;;;;;;18.79;84.29;101693.56;5087203;28;20465;-58
2022/07/21 07:50:56;;;;;;;45.15;26.02;;;;;;;18.77;84.41;101689.38;5095664;28;20023;-60
2022/07/21 07:53:21;;;;;;;47.70;27.65;;;;;;;18.76;85.22;101703.88;5088022;28;20040;-58
2022/07/21 07:55:47;;;;;;;40.70;25.00;;;;;;;18.74;85.56;101698.69;5100307;28;20012;-57
2022/07/21 07:58:12;;;;;;;35.35;23.30;;;;;;;18.63;86.27;101707.38;5087403;28;20458;-57
2022/07/21 08:00:37;;;;;;;39.88;22.65;;;;;;;18.51;86.41;101706.28;5084151;28;20028;-58
2022/07/21 08:03:03;;;;;;;32.33;20.27;;;;;;;18.43;87.32;101709.13;5088107;28;20024;-59
2022/07/21 08:05:28;;;;;;;24.13;17.05;;;;;;;18.31;87.97;101711.56;5091793;28;20024;-57
2022/07/21 08:07:54;;;;;;;21.08;14.00;;;;;;;18.24;88.43;101714.22;5096352;28;20016;-58
2022/07/21 08:10:19;;;;;;;18.08;12.93;;;;;;;18.12;88.93;101713.13;5086507;28;20436;-57
2022/07/21 08:12:44;;;;;;;18.27;13.13;;;;;;;18.06;89.40;101705.03;5084976;28;20545;-58
2022/07/21 08:15:10;;;;;;;18.02;13.02;;;;;;;18.05;90.08;101709.56;5088056;28;20023;-59
2022/07/21 08:17:35;;;;;;;20.17;14.60;;;;;;;18.03;90.33;101710.78;5095978;28;20534;-58
2022/07/21 08:20:01;;;;;;;19.48;13.55;;;;;;;17.99;90.67;101713.06;5092434;27;20428;-58
2022/07/21 08:22:26;;;;;;;18.58;13.77;;;;;;;17.94;90.66;101720.88;5093043;28;20042;-57
2022/07/21 08:24:51;;;;;;;20.35;14.93;;;;;;;17.94;91.23;101718.19;5084589;28;20038;-57
2022/07/21 08:27:17;;;;;;;21.20;14.43;;;;;;;17.95;91.36;101712.63;5082528;28;20063;-56
2022/07/21 08:29:42;;;;;;;19.95;14.25;;;;;;;17.95;91.78;101711.78;5088696;28;20027;-57
2022/07/21 08:32:09;;;;;;;19.65;14.27;;;;;;;17.96;91.91;101716.13;5096638;28;20526;-57
2022/07/21 08:34:34;;;;;;;17.70;13.75;;;;;;;17.97;92.06;101711.59;5090283;28;20028;-58
2022/07/21 08:36:59;;;;;;;19.23;14.43;;;;;;;17.96;92.60;101716.13;5096040;28;20023;-58
2022/07/21 08:39:25;;;;;;;17.55;14.02;;;;;;;17.97;92.93;101715.09;5086968;28;20036;-59
2022/07/21 08:41:51;;;;;;;16.70;14.32;;;;;;;17.97;93.02;101708.91;5089571;28;20057;-59
2022/07/21 08:44:16;;;;;;;17.92;13.73;;;;;;;18.01;93.17;101704.78;5095538;28;20019;-58
2022/07/21 08:46:42;;;;;;;16.58;13.55;;;;;;;18.00;93.48;101708.50;5093314;28;20042;-57
2022/07/21 08:49:09;;;;;;;17.42;13.88;;;;;;;18.01;93.57;101713.69;5085120;28;20589;-58
2022/07/21 08:51:35;;;;;;;16.95;13.65;;;;;;;17.99;93.76;101705.00;5090986;28;20077;-58
2022/07/21 08:54:02;;;;;;;17.83;13.02;;;;;;;18.01;93.85;101704.78;5084968;28;20119;-58
2022/07/21 08:56:28;;;;;;;16.33;13.52;;;;;;;18.01;94.21;101713.69;5089452;28;20036;-57
2022/07/21 08:58:54;;;;;;;15.35;13.40;;;;;;;18.01;94.14;101707.47;5086024;28;20035;-58
2022/07/21 09:01:20;;;;;;;15.98;13.55;;;;;;;18.00;94.36;101701.28;5089249;28;20024;-58
2022/07/21 09:03:45;;;;;;;17.70;14.35;;;;;;;17.99;94.50;101704.16;5084014;28;20027;-58
2022/07/21 09:06:15;;;;;;;17.25;14.48;;;;;;;17.98;94.87;101711.41;5087127;28;20024;-58
2022/07/21 09:08:49;;;;;;;16.67;14.88;;;;;;;18.03;95.11;101714.31;5099209;28;20015;-59
2022/07/21 09:11:27;;;;;;;19.08;14.32;;;;;;;18.04;95.43;101709.75;5089233;28;20106;-58
2022/07/21 09:14:09;;;;;;;18.58;15.10;;;;;;;18.06;95.29;101713.91;5084019;28;20020;-57
2022/07/21 09:16:36;;;;;;;15.02;13.52;;;;;;;18.08;95.67;101705.66;5085829;28;20044;-57
2022/07/21 09:19:04;;;;;;;17.98;14.95;;;;;;;18.13;95.94;101713.94;5087405;28;20024;-58
2022/07/21 09:21:29;;;;;;;17.30;14.27;;;;;;;18.14;95.92;101716.44;5088715;28;20435;-58
2022/07/21 09:24:15;;;;;;;17.65;14.68;;;;;;;18.18;95.85;101719.53;5092836;28;20020;-59
2022/07/21 09:27:05;;;;;;;15.77;14.07;;;;;;;18.17;96.08;101721.41;5095115;28;20468;-58
2022/07/21 09:29:38;;;;;;;15.88;14.27;;;;;;;18.22;95.68;101729.72;5088049;28;20034;-58
2022/07/21 09:32:18;;;;;;;14.73;13.30;;;;;;;18.23;95.39;101723.31;5087023;28;20062;-59
2022/07/21 09:34:49;;;;;;;14.02;12.13;;;;;;;18.21;95.41;101733.44;5085978;28;20185;-58
2022/07/21 09:37:15;;;;;;;14.00;12.57;;;;;;;18.26;95.47;101735.53;5091665;28;20024;-57
2022/07/21 09:39:50;;;;;;;13.38;12.02;;;;;;;18.30;95.75;101742.16;5089232;28;20051;-60
2022/07/21 09:42:28;;;;;;;16.30;12.85;;;;;;;18.30;95.85;101742.16;5085562;28;20052;-59
2022/07/21 09:44:57;;;;;;;12.70;11.35;;;;;;;18.21;95.37;101744.19;5086241;28;20023;-59
2022/07/21 09:47:26;;;;;;;11.38;10.23;;;;;;;18.17;95.75;101747.47;5086770;28;20035;-58
2022/07/21 09:49:52;;;;;;;12.60;9.88;;;;;;;18.13;95.35;101744.34;5086953;28;20027;-60
2022/07/21 09:52:41;;;;;;;11.60;10.10;;;;;;;18.09;95.21;101745.78;5089111;28;20039;-58
2022/07/21 09:55:13;;;;;;;9.57;8.57;;;;;;;18.04;95.17;101745.53;5081844;28;20084;-58
2022/07/21 09:57:38;;;;;;;8.82;7.93;;;;;;;17.98;95.10;101742.81;5089388;28;20063;-58
2022/07/21 10:00:07;;;;;;;8.30;7.50;;;;;;;18.01;95.16;101756.69;5084055;28;20055;-60
2022/07/21 10:02:34;;;;;;;8.38;7.57;;;;;;;18.03;94.87;101753.81;5085436;28;20123;-59
2022/07/21 10:05:08;;;;;;;10.00;7.25;;;;;;;17.98;94.86;101751.72;5090989;28;20422;-58
2022/07/21 10:07:39;;;;;;;7.85;6.97;;;;;;;17.98;94.95;101765.16;5095991;28;20096;-60
2022/07/21 10:10:05;;;;;;;7.82;7.13;;;;;;;17.94;94.91;101772.78;5093267;28;20505;-61
2022/07/21 10:12:31;;;;;;;8.07;7.13;;;;;;;17.89;95.21;101769.81;5089974;28;20035;-60
2022/07/21 10:14:57;;;;;;;7.78;6.97;;;;;;;17.85;94.67;101763.19;5095059;28;20020;-60
2022/07/21 10:17:24;;;;;;;7.55;6.82;;;;;;;17.84;94.97;101779.50;5087498;28;20039;-59
2022/07/21 10:20:08;;;;;;;6.95;6.25;;;;;;;17.89;94.92;101772.50;5089282;28;20020;-60
2022/07/21 10:22:54;;;;;;;7.32;6.00;;;;;;;17.90;94.82;101778.72;5081572;28;20039;-58
2022/07/21 10:25:21;;;;;;;7.50;6.57;;;;;;;17.95;94.43;101776.28;5086079;28;20032;-60
2022/07/21 10:28:20;;;;;;;6.88;5.97;;;;;;;17.89;94.51;101767.13;5088740;28;20024;-60
2022/07/21 10:30:52;;;;;;;7.82;6.68;;;;;;;17.95;94.63;101782.50;5087132;28;20432;-58
2022/07/21 10:33:20;;;;;;;8.20;6.40;;;;;;;17.95;94.47;101787.03;5088346;28;20115;-60
2022/07/21 10:35:50;;;;;;;6.87;6.13;;;;;;;17.93;94.33;101794.47;5090253;28;20381;-59
2022/07/21 10:38:30;;;;;;;8.00;6.78;;;;;;;17.95;94.13;101793.25;5093888;28;20105;-59
2022/07/21 10:40:57;;;;;;;7.40;6.68;;;;;;;17.93;94.08;101799.84;5090951;28;20020;-59
2022/07/21 10:43:26;;;;;;;10.10;7.05;;;;;;;17.92;94.06;101800.84;5088976;28;20028;-59
2022/07/21 10:45:53;;;;;;;7.47;6.43;;;;;;;17.87;94.13;101796.06;5089008;28;20649;-61
2022/07/21 10:48:36;;;;;;;8.95;7.38;;;;;;;17.83;94.15;101793.97;5089492;28;20031;-59
2022/07/21 10:51:06;;;;;;;8.50;7.25;;;;;;;17.80;94.04;101797.03;5099406;28;20012;-60
2022/07/21 10:53:31;;;;;;;9.18;7.88;;;;;;;17.77;93.81;101797.44;5090691;28;20108;-58
2022/07/21 10:55:56;;;;;;;10.18;7.80;;;;;;;17.75;93.85;101804.88;5094915;28;20484;-58
2022/07/21 10:58:30;;;;;;;10.85;8.00;;;;;;;17.76;94.04;101811.91;5088537;28;20055;-59
2022/07/21 11:01:03;;;;;;;11.90;8.50;;;;;;;17.73;94.13;101809.59;5090293;28;20016;-58
2022/07/21 11:03:40;;;;;;;8.73;7.20;;;;;;;17.72;94.04;101813.31;5082538;28;20024;-60
2022/07/21 11:06:05;;;;;;;12.18;7.40;;;;;;;17.67;93.50;101803.16;5087059;28;20024;-60
2022/07/21 11:08:32;;;;;;;10.25;6.53;;;;;;;17.62;93.14;101808.22;5088395;28;20024;-57
2022/07/21 11:11:17;;;;;;;10.88;6.88;;;;;;;17.63;93.15;101799.97;5089742;28;20573;-58
2022/07/21 11:14:02;;;;;;;11.77;7.00;;;;;;;17.63;92.90;101804.50;5101100;28;20479;-59